createdAt,value
2022-12-22T00:01:49.840Z,98871.52
2022-12-22T00:07:15.498Z,98875.23
2022-12-22T00:12:41.529Z,98876.35
2022-12-22T00:18:06.554Z,98865.78
2022-12-22T00:23:32.206Z,98850.38
2022-12-22T00:28:57.335Z,98850.34
2022-12-22T00:34:23.608Z,98850.52
2022-12-22T00:39:51.338Z,98847.85
2022-12-22T00:45:16.459Z,98842.06
2022-12-22T00:50:46.387Z,98839.76
2022-12-22T00:56:11.511Z,98839.34
2022-12-22T01:01:36.527Z,98827.86
2022-12-22T01:07:02.230Z,98830.27
2022-12-22T01:12:33.629Z,98831.08
2022-12-22T01:17:58.307Z,98835.16
2022-12-22T01:23:27.567Z,98829.24
2022-12-22T01:28:52.586Z,98830.98
2022-12-22T01:34:17.797Z,98837.57
2022-12-22T01:39:42.913Z,98826.25
2022-12-22T01:45:07.722Z,98820.75
2022-12-22T01:50:32.810Z,98815.38
2022-12-22T01:55:58.065Z,98821.00
2022-12-22T02:01:23.190Z,98822.52
2022-12-22T02:07:00.021Z,98828.34
2022-12-22T02:12:38.033Z,98831.15
2022-12-22T02:18:14.391Z,98839.77
2022-12-22T02:23:54.484Z,98835.31
2022-12-22T02:29:20.699Z,98833.60
2022-12-22T02:34:45.625Z,98833.91
2022-12-22T02:40:20.525Z,98832.47
2022-12-22T02:45:52.446Z,98837.62
2022-12-22T02:51:24.025Z,98832.17
2022-12-22T02:56:49.693Z,98821.96
2022-12-22T03:02:15.236Z,98819.11
2022-12-22T03:07:40.208Z,98821.40
2022-12-22T03:13:05.435Z,98821.21
2022-12-22T03:18:32.584Z,98821.23
2022-12-22T03:23:57.391Z,98822.27
2022-12-22T03:29:04.596Z,98820.63
2022-12-22T03:34:10.282Z,98827.90
2022-12-22T03:39:17.664Z,98836.09
2022-12-22T03:44:42.888Z,98826.93
2022-12-22T03:49:50.301Z,98821.02
2022-12-22T03:54:57.594Z,98822.59
2022-12-22T04:00:06.037Z,98821.46
2022-12-22T04:05:13.650Z,98822.52
2022-12-22T04:10:38.959Z,98825.96
2022-12-22T04:15:46.258Z,98824.59
2022-12-22T04:20:53.465Z,98815.77
2022-12-22T04:25:59.205Z,98808.11
2022-12-22T04:31:06.813Z,98810.50
2022-12-22T04:36:15.079Z,98812.83
2022-12-22T04:41:22.690Z,98809.63
2022-12-22T04:46:30.157Z,98798.24
2022-12-22T04:51:37.615Z,98797.29
2022-12-22T04:56:44.878Z,98790.63
2022-12-22T05:01:50.555Z,98778.62
2022-12-22T05:06:57.855Z,98769.35
2022-12-22T05:12:24.322Z,98767.59
2022-12-22T05:17:31.662Z,98763.85
2022-12-22T05:22:37.467Z,98767.25
2022-12-22T05:27:45.084Z,98771.63
2022-12-22T05:32:52.500Z,98775.18
2022-12-22T05:38:00.124Z,98769.06
2022-12-22T05:43:07.396Z,98762.38
2022-12-22T05:48:13.368Z,98756.33
2022-12-22T05:53:20.891Z,98751.34
2022-12-22T05:58:28.273Z,98749.13
2022-12-22T06:03:36.104Z,98753.63
2022-12-22T06:08:43.811Z,98748.20
2022-12-22T06:13:51.323Z,98750.39
2022-12-22T06:18:58.815Z,98754.45
2022-12-22T06:24:06.894Z,98764.08
2022-12-22T06:29:14.453Z,98768.95
2022-12-22T06:34:22.399Z,98768.11
2022-12-22T06:39:29.656Z,98771.33
2022-12-22T06:44:35.219Z,98769.11
2022-12-22T06:49:42.464Z,98766.82
2022-12-22T06:54:47.986Z,98754.88
2022-12-22T06:59:57.926Z,98745.19
2022-12-22T07:05:06.117Z,98751.84
2022-12-22T07:10:14.608Z,98752.60
2022-12-22T07:15:22.210Z,98752.09
2022-12-22T07:20:29.518Z,98757.49
2022-12-22T07:25:35.281Z,98760.86
2022-12-22T07:30:43.100Z,98745.01
2022-12-22T07:35:50.501Z,98733.38
2022-12-22T07:41:05.305Z,98736.56
2022-12-22T07:46:13.136Z,98741.86
2022-12-22T07:51:20.486Z,98736.96
2022-12-22T07:56:26.255Z,98725.39
2022-12-22T08:01:34.288Z,98719.38
2022-12-22T08:06:42.212Z,98714.08
2022-12-22T08:12:04.127Z,98713.20
2022-12-22T08:17:12.430Z,98714.27
2022-12-22T08:22:23.823Z,98708.89
2022-12-22T08:27:38.372Z,98707.27
2022-12-22T08:39:44.850Z,98694.04
2022-12-22T08:44:53.912Z,98707.75
2022-12-22T08:50:01.542Z,98696.88
2022-12-22T08:55:10.482Z,98694.55
2022-12-22T09:00:20.346Z,98685.48
2022-12-22T09:05:27.557Z,98676.99
2022-12-22T09:10:37.452Z,98671.87
2022-12-22T09:15:45.395Z,98661.28
2022-12-22T09:20:57.709Z,98661.88
2022-12-22T09:26:10.583Z,98650.98
2022-12-22T09:31:18.489Z,98644.36
2022-12-22T09:36:28.834Z,98634.02
2022-12-22T09:41:40.529Z,98607.75
2022-12-22T09:46:50.962Z,98594.77
2022-12-22T09:52:02.489Z,98606.20
2022-12-22T09:57:14.132Z,98595.53
2022-12-22T10:02:30.042Z,98597.55
2022-12-22T10:07:39.775Z,98583.69
2022-12-22T10:12:51.329Z,98579.40
2022-12-22T10:18:13.393Z,98572.77
2022-12-22T10:23:34.577Z,98562.10
2022-12-22T10:28:45.947Z,98554.89
2022-12-22T10:33:54.901Z,98544.64
2022-12-22T10:39:06.087Z,98529.64
2022-12-22T10:44:23.450Z,98531.77
2022-12-22T10:54:45.088Z,98522.34
2022-12-22T10:59:54.280Z,98512.07
2022-12-22T11:05:06.738Z,98502.45
2022-12-22T11:10:24.930Z,98496.70
2022-12-22T11:15:41.520Z,98493.80
2022-12-22T11:21:00.636Z,98491.48
2022-12-22T11:26:17.624Z,98481.77
2022-12-22T11:31:53.234Z,98480.05
2022-12-22T11:41:05.962Z,98470.06
2022-12-22T11:46:22.882Z,98474.41
2022-12-22T11:51:57.146Z,98459.73
2022-12-22T11:57:12.556Z,98458.72
2022-12-22T12:03:12.066Z,98453.34
2022-12-22T12:08:29.611Z,98454.07
2022-12-22T12:13:49.450Z,98441.23
2022-12-22T12:19:13.362Z,98437.31
2022-12-22T12:24:43.431Z,98439.17
2022-12-22T12:30:36.501Z,98434.29
2022-12-22T12:35:43.742Z,98429.14
2022-12-22T12:40:56.994Z,98421.54
2022-12-22T12:46:24.280Z,98413.67
2022-12-22T12:51:51.110Z,98405.88
2022-12-22T12:57:00.304Z,98405.02
2022-12-22T13:02:28.852Z,98404.60
2022-12-22T13:08:24.818Z,98399.22
2022-12-22T13:13:50.227Z,98393.80
2022-12-22T13:19:00.486Z,98381.44
2022-12-22T13:24:24.628Z,98374.30
2022-12-22T13:29:44.007Z,98373.21
2022-12-22T13:40:32.194Z,98386.02
2022-12-22T13:45:42.853Z,98389.42
2022-12-22T13:50:53.045Z,98388.66
2022-12-22T13:56:00.807Z,98384.70
2022-12-22T14:01:19.063Z,98375.92
2022-12-22T14:06:31.907Z,98369.17
2022-12-22T14:11:40.288Z,98370.73
2022-12-22T14:16:55.474Z,98360.63
2022-12-22T14:22:10.300Z,98363.52
2022-12-22T14:27:24.768Z,98364.05
2022-12-22T14:32:44.970Z,98364.29
2022-12-22T14:37:56.607Z,98364.21
2022-12-22T14:43:07.013Z,98364.91
2022-12-22T14:48:25.842Z,98365.45
2022-12-22T14:53:44.653Z,98362.95
2022-12-22T14:58:52.826Z,98371.48
2022-12-22T15:04:07.976Z,98364.46
2022-12-22T15:14:58.685Z,98347.00
2022-12-22T15:20:07.093Z,98346.96
2022-12-22T15:25:19.633Z,98345.92
2022-12-22T15:30:32.953Z,98341.90
2022-12-22T15:35:41.437Z,98337.39
2022-12-22T15:40:49.303Z,98338.98
2022-12-22T15:45:56.792Z,98334.88
2022-12-22T15:51:05.735Z,98329.52
2022-12-22T15:56:19.014Z,98322.23
2022-12-22T16:01:26.184Z,98317.20
2022-12-22T16:06:31.962Z,98315.02
2022-12-22T16:11:40.462Z,98316.17
2022-12-22T16:16:48.582Z,98307.64
2022-12-22T16:21:56.035Z,98300.77
2022-12-22T16:27:03.275Z,98307.80
2022-12-22T16:32:24.188Z,98304.70
2022-12-22T16:48:35.822Z,98298.33
2022-12-22T16:53:43.257Z,98299.84
2022-12-22T16:58:50.978Z,98301.89
2022-12-22T17:04:01.569Z,98310.80
2022-12-22T17:09:14.052Z,98319.16
2022-12-22T17:14:29.459Z,98318.89
2022-12-22T17:19:36.717Z,98313.83
2022-12-22T17:24:42.200Z,98310.82
2022-12-22T17:29:49.360Z,98303.85
2022-12-22T17:34:56.406Z,98301.73
2022-12-22T17:40:06.616Z,98298.15
2022-12-22T17:45:19.078Z,98299.67
2022-12-22T17:50:26.456Z,98292.66
2022-12-22T17:56:07.366Z,98301.68
2022-12-22T18:00:59.669Z,98297.81
2022-12-22T18:06:10.372Z,98290.02
2022-12-22T18:11:20.105Z,98284.42
2022-12-22T18:16:25.858Z,98280.79
2022-12-22T18:21:33.209Z,98270.97
2022-12-22T18:26:38.642Z,98277.66
2022-12-22T18:31:46.172Z,98271.17
2022-12-22T18:36:53.463Z,98275.34
2022-12-22T18:41:59.005Z,98270.13
2022-12-22T18:47:06.452Z,98265.32
2022-12-22T18:52:17.914Z,98264.90
2022-12-22T18:57:25.329Z,98265.83
2022-12-22T19:02:33.558Z,98260.36
2022-12-22T19:07:40.778Z,98256.09
2022-12-22T19:12:52.049Z,98250.95
2022-12-22T19:17:59.640Z,98246.23
2022-12-22T19:23:06.869Z,98251.89
2022-12-22T19:28:17.057Z,98256.88
2022-12-22T19:33:27.642Z,98260.25
2022-12-22T19:38:38.272Z,98257.25
2022-12-22T19:43:45.337Z,98258.81
2022-12-22T19:48:50.938Z,98253.42
2022-12-22T19:53:59.259Z,98252.63
2022-12-22T19:59:09.069Z,98259.02
2022-12-22T20:04:16.457Z,98261.67
2022-12-22T20:09:23.521Z,98263.98
2022-12-22T20:14:30.614Z,98253.73
2022-12-22T20:19:37.738Z,98255.80
2022-12-22T20:24:45.848Z,98259.30
2022-12-22T20:29:53.044Z,98264.84
2022-12-22T20:34:58.566Z,98265.34
2022-12-22T20:40:06.447Z,98272.90
2022-12-22T20:45:14.718Z,98266.77
2022-12-22T20:50:26.469Z,98264.16
2022-12-22T20:55:33.599Z,98263.38
2022-12-22T21:00:42.933Z,98262.20
2022-12-22T21:05:50.849Z,98261.34
2022-12-22T21:10:58.612Z,98255.54
2022-12-22T21:16:07.248Z,98251.21
2022-12-22T21:21:14.996Z,98249.95
2022-12-22T21:26:28.246Z,98252.77
2022-12-22T21:31:35.409Z,98255.58
2022-12-22T21:36:43.917Z,98255.77
2022-12-22T21:52:50.259Z,98238.91
2022-12-22T22:07:46.256Z,98247.64
2022-12-22T22:12:54.083Z,98244.92
2022-12-22T22:18:06.739Z,98251.72
2022-12-22T22:23:16.735Z,98246.65
2022-12-22T22:28:23.880Z,98257.29
2022-12-22T22:33:31.149Z,98260.39
2022-12-22T22:38:39.131Z,98262.04
2022-12-22T22:43:49.813Z,98260.63
2022-12-22T22:48:58.827Z,98258.63
2022-12-22T22:54:06.480Z,98245.61
2022-12-22T22:59:16.343Z,98237.33
2022-12-22T23:04:23.576Z,98231.73
2022-12-22T23:09:31.109Z,98232.86
2022-12-22T23:14:38.392Z,98227.05
2022-12-22T23:19:48.812Z,98223.77
2022-12-22T23:24:55.877Z,98227.95
2022-12-22T23:30:03.572Z,98235.05
2022-12-22T23:35:09.455Z,98239.79
2022-12-22T23:40:50.451Z,98238.27
2022-12-22T23:45:44.601Z,98244.23
2022-12-22T23:50:52.169Z,98243.86
2022-12-22T23:56:02.445Z,98248.85
